Time;durP1;ratioP1;P1;durP2;ratioP2;P2;SDS_P1;SDS_P2;PMS_P1;PMS_P2;Temp;Humidity;BMP_temperature;BMP_pressure;BME280_temperature;BME280_humidity;BME280_pressure;Samples;Min_cycle;Max_cycle;Signal;HPM_P1;HPM_P2
2022/09/16 00:02:21;;;;;;;;;4.25;3.50;;;;;18.51;51.67;100950.69;5078351;27;45481;-52
2022/09/16 00:04:47;;;;;;;;;3.75;3.75;;;;;18.48;51.48;100952.94;5078751;27;45401;-52
2022/09/16 00:07:12;;;;;;;;;9.25;4.25;;;;;18.46;51.92;100961.22;5078283;27;45318;-53
2022/09/16 00:09:37;;;;;;;;;7.00;5.50;;;;;18.44;52.18;100966.78;5078280;27;45448;-52
2022/09/16 00:12:04;;;;;;;;;6.25;5.00;;;;;18.37;52.24;100957.81;5078014;27;45195;-54
2022/09/16 00:14:30;;;;;;;;;5.25;3.75;;;;;18.39;52.46;100960.31;5076867;28;45397;-55
2022/09/16 00:16:55;;;;;;;;;5.75;4.00;;;;;18.37;52.33;100971.28;5078335;27;45247;-57
2022/09/16 00:19:20;;;;;;;;;6.25;5.00;;;;;18.35;52.52;100965.25;5077868;27;46309;-53
2022/09/16 00:21:47;;;;;;;;;6.50;4.00;;;;;18.35;52.76;100972.50;5078061;27;45385;-49
2022/09/16 00:24:14;;;;;;;;;5.00;5.00;;;;;18.33;52.97;100975.41;5077832;27;45391;-53
2022/09/16 00:26:40;;;;;;;;;6.00;4.75;;;;;18.33;53.14;100978.09;5077538;27;45444;-50
2022/09/16 00:29:05;;;;;;;;;8.00;5.25;;;;;18.34;52.63;100984.31;5076226;27;46286;-54
2022/09/16 00:31:31;;;;;;;;;10.00;5.00;;;;;18.35;52.87;100985.97;5077604;27;45383;-55
2022/09/16 00:33:56;;;;;;;;;9.00;5.00;;;;;18.36;53.09;100979.53;5077914;27;45823;-52
2022/09/16 00:36:22;;;;;;;;;3.75;3.50;;;;;18.38;52.86;100981.03;5078102;27;45310;-53
2022/09/16 00:38:54;;;;;;;;;6.75;4.75;;;;;18.40;52.88;100984.34;5077813;28;45378;-49
2022/09/16 00:41:32;;;;;;;;;6.75;4.25;;;;;18.41;52.34;100982.50;5077593;27;45468;-52
2022/09/16 00:44:41;;;;;;;;;7.00;5.25;;;;;18.39;52.44;100977.31;5078016;27;45385;-54
2022/09/16 00:47:07;;;;;;;;;4.25;4.00;;;;;18.38;52.54;100978.34;5077747;27;45519;-54
2022/09/16 00:49:32;;;;;;;;;6.00;4.75;;;;;18.37;53.05;100979.38;5077550;27;45294;-52
2022/09/16 00:52:04;;;;;;;;;6.00;4.00;;;;;18.38;52.61;100986.41;5077572;27;45693;-49
2022/09/16 00:54:31;;;;;;;;;5.25;4.75;;;;;18.38;52.96;100989.13;5077612;28;45387;-52
2022/09/16 00:56:59;;;;;;;;;5.50;4.00;;;;;18.35;52.68;100975.19;5077791;27;45432;-55
2022/09/16 00:59:37;;;;;;;;;7.25;5.75;;;;;18.38;52.94;100986.41;5077304;27;46068;-49
2022/09/16 01:02:11;;;;;;;;;4.75;4.75;;;;;18.35;53.47;100981.41;5077238;27;45327;-49
2022/09/16 01:05:11;;;;;;;;;4.00;4.00;;;;;18.35;53.02;100980.56;5077730;27;45451;-47
2022/09/16 01:07:44;;;;;;;;;6.00;6.00;;;;;18.32;53.11;100970.19;5077397;27;45396;-49
2022/09/16 01:10:11;;;;;;;;;4.00;4.00;;;;;18.30;53.38;100978.47;5077399;28;46615;-47
2022/09/16 01:12:40;;;;;;;;;7.00;5.00;;;;;18.31;53.48;100968.53;5077312;27;45262;-53
2022/09/16 01:15:06;;;;;;;;;6.50;5.25;;;;;18.30;53.89;100967.69;5077234;27;45432;-48
2022/09/16 01:17:43;;;;;;;;;7.00;5.67;;;;;18.34;53.76;100970.84;5077334;27;45555;-50
2022/09/16 01:20:30;;;;;;;;;5.50;5.50;;;;;18.34;53.68;100976.22;5077189;27;45298;-48
2022/09/16 01:23:14;;;;;;;;;5.00;3.75;;;;;18.34;53.84;100978.91;5077000;27;45288;-52
2022/09/16 01:26:01;;;;;;;;;7.25;4.25;;;;;18.31;53.68;100979.28;5077253;27;45377;-47
2022/09/16 01:28:45;;;;;;;;;8.00;5.50;;;;;18.29;54.48;100984.88;5077203;27;45468;-54
2022/09/16 01:31:22;;;;;;;;;7.50;6.00;;;;;18.24;54.08;100973.81;5076731;27;45310;-50
2022/09/16 01:34:23;;;;;;;;;6.00;5.25;;;;;18.20;54.34;100986.88;5076766;27;45611;-51
2022/09/16 01:37:00;;;;;;;;;3.25;3.25;;;;;18.18;55.11;100980.81;5079594;27;45544;-47
2022/09/16 01:39:37;;;;;;;;;5.50;5.25;;;;;18.15;54.73;100980.34;5080543;27;45283;-47
2022/09/16 01:42:05;;;;;;;;;7.25;7.25;;;;;18.12;55.31;100978.91;5080560;27;45279;-46
2022/09/16 01:44:51;;;;;;;;;7.00;6.00;;;;;18.07;55.05;100978.63;5080541;27;45386;-49
2022/09/16 01:47:28;;;;;;;;;9.33;6.33;;;;;18.05;55.79;100977.97;5080278;27;45353;-51
2022/09/16 01:50:06;;;;;;;;;7.00;5.33;;;;;18.02;55.45;100977.53;5080631;27;45246;-51
2022/09/16 01:53:09;;;;;;;;;8.67;7.33;;;;;17.99;55.37;100978.72;5080170;27;45433;-47
2022/09/16 01:55:44;;;;;;;;;5.25;5.00;;;;;17.97;55.72;100975.41;5017545;28;45389;-52
2022/09/16 01:58:09;;;;;;;;;7.67;5.00;;;;;17.97;56.03;100979.97;5017840;28;45322;-52
2022/09/16 02:00:38;;;;;;;;;8.67;6.00;;;;;17.97;56.12;100983.47;5017881;28;45515;-55
2022/09/16 02:03:09;;;;;;;;;7.50;4.75;;;;;17.94;55.98;100973.09;5017445;28;45834;-54
2022/09/16 02:05:49;;;;;;;;;6.75;6.00;;;;;17.93;56.01;100984.88;5017616;28;45312;-54
2022/09/16 02:08:25;;;;;;;;;5.50;4.25;;;;;17.88;56.21;100974.69;5017784;28;45539;-54
2022/09/16 02:10:56;;;;;;;;;9.00;5.33;;;;;17.84;56.17;100975.25;5001163;28;45324;-55
2022/09/16 02:13:28;;;;;;;;;6.50;5.50;;;;;17.44;56.48;100923.59;5017226;28;47031;-54
2022/09/16 02:15:59;;;;;;;;;6.67;5.33;;;;;17.78;56.25;100976.00;5017305;28;45539;-55
2022/09/16 02:18:30;;;;;;;;;6.67;6.00;;;;;17.74;57.01;100969.28;5017279;28;45420;-55
2022/09/16 02:20:58;;;;;;;;;6.00;6.00;;;;;17.54;56.88;100951.06;5016923;28;45520;-53
2022/09/16 02:23:32;;;;;;;;;4.67;4.67;;;;;17.66;56.65;100972.94;5017148;28;46369;-54
2022/09/16 02:26:00;;;;;;;;;5.67;5.33;;;;;17.62;57.14;100972.47;5016392;28;45438;-53
2022/09/16 02:28:34;;;;;;;;;8.00;6.00;;;;;17.56;57.30;100967.81;5017589;28;45484;-55
2022/09/16 02:31:04;;;;;;;;;8.33;7.00;;;;;17.55;57.56;100968.03;5017474;28;45452;-53
2022/09/16 02:33:35;;;;;;;;;6.33;6.33;;;;;17.53;57.40;100970.91;5078150;27;48378;-56
2022/09/16 02:36:03;;;;;;;;;9.33;7.00;;;;;17.50;57.69;100962.38;5079868;27;45405;-55
2022/09/16 02:38:37;;;;;;;;;5.33;5.00;;;;;17.46;57.75;100959.22;5079627;27;45193;-53
2022/09/16 02:41:03;;;;;;;;;7.67;5.67;;;;;17.43;57.48;100959.59;5095447;27;45495;-54
2022/09/16 02:43:30;;;;;;;;;8.33;6.67;;;;;17.42;58.27;100956.06;5079451;27;45270;-54
2022/09/16 02:46:30;;;;;;;;;6.00;6.00;;;;;17.38;57.58;100954.75;5079545;27;45448;-55
2022/09/16 02:49:13;;;;;;;;;7.00;7.00;;;;;17.36;57.90;100962.19;5017255;28;45594;-54
2022/09/16 02:51:54;;;;;;;;;10.33;6.00;;;;;17.33;57.47;100956.34;5017059;28;45570;-54
2022/09/16 02:54:43;;;;;;;;;11.67;7.00;;;;;17.30;58.10;100949.47;5016713;28;46266;-55
2022/09/16 02:57:09;;;;;;;;;6.33;6.00;;;;;17.28;59.04;100954.22;5016763;28;45520;-53
2022/09/16 02:59:36;;;;;;;;;6.33;6.00;;;;;17.24;58.56;100947.53;5016955;28;45434;-54
2022/09/16 03:02:02;;;;;;;;;7.00;7.00;;;;;17.22;59.08;100946.88;5017171;28;45470;-55
2022/09/16 03:04:28;;;;;;;;;9.33;7.00;;;;;17.21;59.05;100946.06;5016566;28;46162;-54
2022/09/16 03:06:53;;;;;;;;;9.67;7.33;;;;;17.20;59.16;100944.38;5016594;28;45512;-56
2022/09/16 03:09:22;;;;;;;;;8.67;8.00;;;;;17.19;59.12;100949.94;5016624;28;45513;-52
2022/09/16 03:11:59;;;;;;;;;10.33;7.00;;;;;17.18;58.79;100953.66;5016709;28;45433;-55
2022/09/16 03:14:28;;;;;;;;;6.00;6.00;;;;;17.15;59.33;100946.81;5016398;28;45402;-54
2022/09/16 03:17:24;;;;;;;;;11.00;9.00;;;;;17.13;59.09;100948.81;5016332;28;45429;-54
2022/09/16 03:20:10;;;;;;;;;11.00;8.00;;;;;17.12;59.44;100947.16;5016634;28;45383;-48
2022/09/16 03:22:54;;;;;;;;;7.50;7.50;;;;;17.10;59.17;100951.03;5016754;28;45306;-53
2022/09/16 03:25:26;;;;;;;;;7.00;7.00;;;;;17.08;59.48;100953.94;5068826;28;45637;-54
2022/09/16 03:28:03;;;;;;;;;7.00;6.00;;;;;16.96;59.85;100934.72;5078752;27;45439;-55
2022/09/16 03:30:36;;;;;;;;;6.00;6.00;;;;;17.05;59.75;100945.41;5078999;27;45413;-54
2022/09/16 03:33:13;;;;;;;;;8.00;7.00;;;;;17.03;59.38;100948.28;5078798;27;45300;-53
2022/09/16 03:35:47;;;;;;;;;8.00;6.33;;;;;16.99;60.00;100928.16;5078732;28;46237;-55
2022/09/16 03:38:15;;;;;;;;;10.00;7.00;;;;;17.00;59.83;100940.56;5078505;27;45270;-56
2022/09/16 03:40:42;;;;;;;;;7.00;6.00;;;;;16.97;60.17;100940.94;5078965;28;45357;-55
2022/09/16 03:43:15;;;;;;;;;6.00;6.00;;;;;16.98;59.48;100947.13;5079335;27;45340;-50
2022/09/16 03:45:41;;;;;;;;;8.67;7.33;;;;;16.98;60.30;100949.81;5094457;27;46256;-47
2022/09/16 03:48:08;;;;;;;;;13.00;8.00;;;;;16.91;59.87;100945.19;5078354;27;45393;-53
2022/09/16 03:50:33;;;;;;;;;11.67;6.00;;;;;16.94;59.99;100954.75;5078525;27;45485;-48
2022/09/16 03:52:59;;;;;;;;;13.00;7.00;;;;;16.95;60.28;100964.47;5078688;27;45345;-50
2022/09/16 03:55:24;;;;;;;;;6.00;6.00;;;;;16.95;60.57;100956.41;5078343;27;45937;-51
2022/09/16 03:57:52;;;;;;;;;8.00;6.00;;;;;16.95;60.07;100959.09;5078091;27;45255;-55
2022/09/16 04:00:17;;;;;;;;;11.67;6.00;;;;;16.95;60.03;100962.63;5078079;27;45303;-56
2022/09/16 04:02:43;;;;;;;;;7.67;7.67;;;;;16.94;60.06;100962.81;5078759;27;45389;-55
2022/09/16 04:05:08;;;;;;;;;10.67;4.33;;;;;16.82;60.37;100949.00;5078100;27;45278;-52
2022/09/16 04:07:34;;;;;;;;;9.00;7.33;;;;;16.92;60.15;100960.28;5078420;27;45433;-56
2022/09/16 04:10:00;;;;;;;;;11.67;5.00;;;;;16.93;60.27;100967.34;5078259;27;45223;-54
2022/09/16 04:12:26;;;;;;;;;8.00;6.00;;;;;16.91;60.42;100960.50;5078464;27;45382;-54
2022/09/16 04:14:52;;;;;;;;;11.00;7.67;;;;;16.91;60.07;100960.50;5077861;27;46105;-53
2022/09/16 04:17:17;;;;;;;;;10.33;9.00;;;;;16.89;60.65;100965.19;5077692;27;45339;-55
2022/09/16 04:19:43;;;;;;;;;6.67;4.00;;;;;16.81;60.51;100951.84;5078126;27;45666;-53
2022/09/16 04:22:08;;;;;;;;;9.33;8.33;;;;;16.88;60.50;100977.81;5078234;27;45161;-52
2022/09/16 04:24:33;;;;;;;;;11.67;8.00;;;;;16.87;60.66;100972.63;5077868;27;47446;-55
2022/09/16 04:26:59;;;;;;;;;7.67;6.00;;;;;16.84;60.49;100976.50;5077996;27;45353;-55
2022/09/16 04:29:24;;;;;;;;;10.00;7.67;;;;;16.82;60.47;100981.22;5077941;27;45488;-54
2022/09/16 04:31:49;;;;;;;;;9.67;9.00;;;;;16.81;60.65;100981.38;5078319;27;45329;-54
2022/09/16 04:34:15;;;;;;;;;10.33;9.00;;;;;16.76;60.62;100979.25;5077536;27;45509;-53
2022/09/16 04:36:40;;;;;;;;;13.00;9.00;;;;;16.75;61.01;100984.81;5077744;27;45326;-53
2022/09/16 04:39:06;;;;;;;;;10.33;6.00;;;;;16.70;61.16;100980.78;5093421;27;45450;-54
2022/09/16 04:41:31;;;;;;;;;10.67;8.33;;;;;16.68;61.41;100977.44;5077742;27;45322;-55
2022/09/16 04:43:58;;;;;;;;;9.00;7.00;;;;;16.67;61.23;100991.06;5077861;27;46113;-52
2022/09/16 04:46:26;;;;;;;;;8.33;8.33;;;;;16.66;61.28;100984.84;5077666;27;45406;-58
2022/09/16 04:48:53;;;;;;;;;8.33;8.33;;;;;16.66;61.89;100984.84;5077622;27;45477;-54
2022/09/16 04:51:19;;;;;;;;;12.00;12.00;;;;;16.66;61.61;100984.84;5077796;27;45424;-50
2022/09/16 04:53:45;;;;;;;;;11.00;9.33;;;;;16.62;61.47;100977.34;5077366;27;46413;-56
2022/09/16 04:56:21;;;;;;;;;11.00;9.67;;;;;16.62;61.54;100982.72;5077599;27;45394;-54
2022/09/16 04:58:49;;;;;;;;;12.67;11.00;;;;;16.61;61.96;100976.50;5077414;28;45497;-51
2022/09/16 05:01:16;;;;;;;;;9.00;7.33;;;;;16.60;61.66;100971.28;5077746;27;45331;-55
2022/09/16 05:03:44;;;;;;;;;10.00;10.00;;;;;16.58;61.30;100979.53;5077339;27;45259;-51
2022/09/16 05:06:15;;;;;;;;;16.00;8.00;;;;;16.56;61.44;100986.97;5077381;27;45353;-50
2022/09/16 05:08:40;;;;;;;;;12.67;10.33;;;;;16.55;61.89;100982.56;5077487;27;45371;-54
2022/09/16 05:11:08;;;;;;;;;8.67;8.67;;;;;16.55;61.92;100992.50;5076309;27;45214;-51
2022/09/16 05:13:34;;;;;;;;;5.67;4.67;;;;;16.43;62.58;100968.75;5077152;27;46444;-55
2022/09/16 05:16:12;;;;;;;;;13.67;8.33;;;;;16.54;62.05;100990.81;5077091;27;45433;-54
2022/09/16 05:18:39;;;;;;;;;10.00;6.33;;;;;16.58;62.45;100981.41;5077274;27;45367;-50
2022/09/16 05:21:08;;;;;;;;;9.67;9.33;;;;;16.59;61.90;100978.53;5077431;27;45446;-53
2022/09/16 05:23:34;;;;;;;;;13.00;10.33;;;;;16.54;61.84;100970.16;5076798;27;46109;-54
2022/09/16 05:26:06;;;;;;;;;10.00;8.00;;;;;16.68;61.93;100993.53;5076961;27;45274;-54
2022/09/16 05:28:32;;;;;;;;;14.33;12.00;;;;;16.69;61.44;100983.66;5076782;27;45260;-52
2022/09/16 05:31:12;;;;;;;;;13.33;9.67;;;;;16.68;61.52;100973.91;5077292;27;45487;-54
2022/09/16 05:33:39;;;;;;;;;12.00;9.67;;;;;16.75;61.85;100977.59;5076762;27;45925;-50
2022/09/16 05:36:15;;;;;;;;;13.00;6.00;;;;;16.77;61.55;100983.63;5076204;27;45325;-47
2022/09/16 05:38:41;;;;;;;;;13.67;9.67;;;;;16.84;61.72;100991.78;5076923;27;45312;-52
2022/09/16 05:41:07;;;;;;;;;10.67;10.00;;;;;16.89;61.62;100989.38;5076997;28;45468;-53
2022/09/16 05:43:34;;;;;;;;;14.67;9.33;;;;;16.93;61.34;100991.50;5076796;27;46076;-54
2022/09/16 05:46:00;;;;;;;;;9.67;9.67;;;;;16.98;61.04;100999.06;5076656;27;45318;-53
2022/09/16 05:48:25;;;;;;;;;11.00;8.00;;;;;17.00;61.17;100999.69;5076652;27;45400;-51
2022/09/16 05:50:52;;;;;;;;;12.00;9.33;;;;;17.03;61.06;101002.03;5076899;27;45298;-52
2022/09/16 05:53:17;;;;;;;;;9.00;9.00;;;;;16.95;60.93;100985.97;5076601;27;45818;-53
2022/09/16 05:56:03;;;;;;;;;11.00;11.00;;;;;17.08;60.57;101017.59;5076561;27;45378;-53
2022/09/16 05:58:30;;;;;;;;;10.00;8.67;;;;;17.11;60.80;101001.13;5076590;27;45383;-52
2022/09/16 06:01:08;;;;;;;;;12.00;12.00;;;;;17.10;60.65;100992.19;5077135;27;45298;-55
2022/09/16 06:03:36;;;;;;;;;11.67;10.67;;;;;17.19;60.68;101001.00;5076460;28;47305;-53
2022/09/16 06:06:12;;;;;;;;;14.67;8.00;;;;;17.23;60.48;101006.84;5076726;28;45337;-55
2022/09/16 06:08:39;;;;;;;;;12.00;11.33;;;;;17.27;60.59;101008.16;5076857;27;45425;-51
2022/09/16 06:11:08;;;;;;;;;14.00;11.00;;;;;17.29;60.74;101000.75;5076855;28;45216;-55
2022/09/16 06:13:33;;;;;;;;;13.67;12.00;;;;;17.36;60.46;101009.75;5076646;27;46137;-53
2022/09/16 06:16:00;;;;;;;;;12.33;11.00;;;;;17.42;59.74;101014.41;5076384;27;45377;-55
2022/09/16 06:18:28;;;;;;;;;12.00;11.67;;;;;17.43;60.09;101011.50;5076637;27;45301;-55
2022/09/16 06:20:54;;;;;;;;;15.67;10.33;;;;;17.46;59.74;101013.84;5076756;27;45470;-52
2022/09/16 06:23:20;;;;;;;;;14.00;13.00;;;;;17.51;59.49;101021.34;5079882;27;46371;-49
2022/09/16 06:25:46;;;;;;;;;15.67;13.00;;;;;17.53;59.70;101021.16;5078283;27;45285;-52
2022/09/16 06:28:12;;;;;;;;;15.00;11.67;;;;;17.57;59.51;101017.94;5080204;27;45373;-53
2022/09/16 06:30:38;;;;;;;;;12.67;9.33;;;;;17.61;59.26;101021.06;5080530;27;45289;-49
2022/09/16 06:33:04;;;;;;;;;13.00;9.00;;;;;17.66;59.23;101019.50;5079897;27;46216;-55
2022/09/16 06:35:29;;;;;;;;;11.67;10.00;;;;;17.69;58.72;101016.41;5016056;28;45327;-55
2022/09/16 06:37:55;;;;;;;;;13.67;9.00;;;;;17.67;58.67;101020.34;4977908;28;45394;-55
2022/09/16 06:40:20;;;;;;;;;17.67;9.67;;;;;17.68;58.96;101028.22;4987273;28;45448;-51
2022/09/16 06:42:46;;;;;;;;;14.67;12.00;;;;;17.62;58.96;101009.31;5043367;28;46422;-52
2022/09/16 06:45:12;;;;;;;;;12.67;11.33;;;;;17.71;58.92;101017.09;5079706;27;45888;-54
2022/09/16 06:47:37;;;;;;;;;15.33;12.00;;;;;17.77;58.85;101018.22;5079599;27;45398;-54
2022/09/16 06:50:04;;;;;;;;;17.33;8.33;;;;;17.82;58.38;101017.66;5079563;27;45291;-53
2022/09/16 06:52:30;;;;;;;;;15.33;11.67;;;;;17.84;58.53;101021.84;4985301;27;46159;-51
2022/09/16 06:54:55;;;;;;;;;15.67;13.00;;;;;17.84;58.31;101021.84;5074791;27;45393;-52
2022/09/16 06:57:22;;;;;;;;;13.67;11.33;;;;;17.84;58.42;101018.31;5074786;28;45555;-53
2022/09/16 06:59:49;;;;;;;;;14.00;13.00;;;;;17.80;58.52;101027.78;5075420;27;45691;-49
2022/09/16 07:02:15;;;;;;;;;17.33;12.00;;;;;17.87;58.39;101023.31;5041345;27;47122;-55
2022/09/16 07:04:40;;;;;;;;;8.33;8.33;;;;;17.97;58.08;101029.25;5074689;27;45430;-53
2022/09/16 07:07:05;;;;;;;;;16.33;11.67;;;;;18.06;57.94;101030.78;5074863;27;45492;-51
2022/09/16 07:09:31;;;;;;;;;10.33;10.33;;;;;18.33;57.63;101041.88;5075580;27;45414;-50
2022/09/16 07:11:58;;;;;;;;;16.00;12.67;;;;;18.63;56.29;101032.66;5074968;27;45491;-55
2022/09/16 07:14:23;;;;;;;;;9.33;8.67;;;;;18.91;55.76;101042.69;4997819;27;45489;-51
2022/09/16 07:16:49;;;;;;;;;13.00;10.00;;;;;18.99;55.22;101044.41;4975479;28;45441;-50
2022/09/16 07:19:14;;;;;;;;;8.33;8.33;;;;;18.95;55.47;101055.59;4975278;28;45460;-48
2022/09/16 07:21:40;;;;;;;;;14.00;8.00;;;;;18.91;55.24;101045.38;4974739;28;45493;-50
2022/09/16 07:24:06;;;;;;;;;13.67;9.00;;;;;18.94;55.49;101056.63;4975026;28;45248;-51
2022/09/16 07:26:34;;;;;;;;;9.00;8.67;;;;;18.95;55.34;101054.75;4974976;28;45548;-52
2022/09/16 07:29:01;;;;;;;;;11.75;8.75;;;;;18.90;55.39;101057.19;4978012;28;45465;-54
2022/09/16 07:31:30;;;;;;;;;14.67;10.33;;;;;18.91;55.36;101056.16;4995970;28;46041;-57
2022/09/16 07:33:57;;;;;;;;;9.67;8.00;;;;;18.90;55.42;101058.03;5010736;27;45390;-55
2022/09/16 07:36:26;;;;;;;;;12.00;9.00;;;;;18.99;55.14;101056.03;5028311;28;45433;-50
2022/09/16 07:38:53;;;;;;;;;14.00;9.00;;;;;19.14;54.92;101062.19;5066791;27;45928;-55
2022/09/16 07:41:22;;;;;;;;;12.33;9.33;;;;;19.34;54.65;101070.44;5067640;28;45984;-53
2022/09/16 07:43:48;;;;;;;;;13.00;9.50;;;;;19.59;53.80;101067.25;5041713;27;45395;-56
2022/09/16 07:46:16;;;;;;;;;10.33;8.33;;;;;19.75;53.68;101056.19;5074466;27;45560;-53
2022/09/16 07:48:43;;;;;;;;;7.25;7.00;;;;;19.93;53.32;101066.44;5074592;27;45514;-57
2022/09/16 07:51:11;;;;;;;;;15.25;12.00;;;;;20.03;52.17;101064.22;5029838;27;46383;-50
2022/09/16 07:53:37;;;;;;;;;10.00;7.75;;;;;20.07;52.10;101070.88;4975233;28;45533;-56
2022/09/16 07:56:05;;;;;;;;;8.00;6.75;;;;;20.21;51.81;101070.94;4972734;28;45842;-53
2022/09/16 07:58:31;;;;;;;;;8.25;8.25;;;;;20.32;51.67;101078.47;4974685;28;45514;-54
2022/09/16 08:00:57;;;;;;;;;9.00;6.00;;;;;20.30;51.43;101075.94;4988449;28;46427;-51
2022/09/16 08:03:22;;;;;;;;;7.00;5.25;;;;;20.33;50.87;101082.84;5009019;27;45527;-49
2022/09/16 08:05:47;;;;;;;;;6.50;6.50;;;;;20.33;51.17;101083.66;5068189;27;45460;-48
2022/09/16 08:08:13;;;;;;;;;6.00;6.00;;;;;20.42;50.60;101084.31;4984639;28;45532;-48
2022/09/16 08:10:38;;;;;;;;;11.25;6.50;;;;;20.51;49.78;101088.53;5000291;27;46257;-56
2022/09/16 08:13:05;;;;;;;;;4.75;4.75;;;;;20.58;48.84;101091.25;5005603;28;45437;-49
2022/09/16 08:15:31;;;;;;;;;5.25;4.75;;;;;20.62;49.37;101085.25;4971874;28;45480;-55
2022/09/16 08:17:56;;;;;;;;;10.50;6.75;;;;;20.65;48.12;101086.72;4974552;28;45434;-55
2022/09/16 08:20:23;;;;;;;;;7.75;3.00;;;;;20.81;48.41;101088.16;4974363;28;46219;-47
2022/09/16 08:22:48;;;;;;;;;9.00;6.50;;;;;20.97;46.95;101087.78;4974047;28;45458;-52
2022/09/16 08:25:13;;;;;;;;;6.00;5.00;;;;;21.02;46.61;101092.56;4974838;28;46013;-52
2022/09/16 08:27:39;;;;;;;;;7.50;4.00;;;;;20.94;46.28;101093.59;4994193;28;45659;-56
2022/09/16 08:30:04;;;;;;;;;4.50;4.50;;;;;20.90;46.12;101095.91;5073902;27;46111;-49
2022/09/16 08:32:30;;;;;;;;;3.25;3.25;;;;;20.99;46.14;101093.84;5072401;27;45501;-56
2022/09/16 08:34:55;;;;;;;;;4.50;3.50;;;;;20.91;46.74;101104.84;5016433;27;45779;-52
2022/09/16 08:37:21;;;;;;;;;6.00;4.50;;;;;20.70;46.03;101099.59;5073825;27;45204;-53
2022/09/16 08:39:50;;;;;;;;;4.50;4.50;;;;;20.49;47.31;101109.53;5053814;27;46290;-55
2022/09/16 08:42:29;;;;;;;;;6.50;5.00;;;;;20.21;48.08;101114.16;5002639;28;46001;-49
2022/09/16 08:45:04;;;;;;;;;5.00;4.00;;;;;20.05;48.73;101116.16;4973706;28;45474;-49
2022/09/16 08:47:41;;;;;;;;;4.75;4.75;;;;;19.87;48.28;101113.97;4990486;28;46478;-51
2022/09/16 08:50:15;;;;;;;;;3.00;3.00;;;;;19.71;48.97;101113.47;4973703;28;45484;-51
2022/09/16 08:52:43;;;;;;;;;6.75;3.75;;;;;19.60;49.38;101120.22;5012268;28;45441;-51
2022/09/16 08:55:22;;;;;;;;;3.00;3.00;;;;;19.50;48.92;101115.16;5073364;27;45456;-54
2022/09/16 08:58:25;;;;;;;;;4.00;4.00;;;;;19.41;48.49;101116.34;5073485;27;45441;-49
2022/09/16 09:00:57;;;;;;;;;5.50;3.75;;;;;19.53;48.84;101122.88;5039161;27;46266;-55
2022/09/16 09:03:42;;;;;;;;;3.00;3.00;;;;;19.64;47.90;101129.63;5046002;27;45440;-53
2022/09/16 09:06:20;;;;;;;;;4.25;3.50;;;;;19.78;47.63;101127.84;5063575;27;45543;-47
2022/09/16 09:08:54;;;;;;;;;2.75;2.00;;;;;19.97;47.00;101129.00;5060552;27;45441;-56
2022/09/16 09:11:34;;;;;;;;;2.50;2.50;;;;;20.16;45.88;101134.50;5013962;27;47024;-55
2022/09/16 09:13:59;;;;;;;;;4.00;2.25;;;;;20.33;45.19;101128.75;4973560;28;45751;-49
2022/09/16 09:16:50;;;;;;;;;4.50;2.25;;;;;20.48;45.77;101134.00;4973815;28;45492;-54
2022/09/16 09:19:49;;;;;;;;;4.50;4.00;;;;;20.81;44.72;101140.38;4973559;28;45485;-53
2022/09/16 09:22:42;;;;;;;;;4.00;2.75;;;;;21.05;43.83;101144.38;5037540;28;45467;-54
2022/09/16 09:25:16;;;;;;;;;4.00;3.00;;;;;21.05;43.80;101135.44;4973079;28;45428;-52
2022/09/16 09:27:58;;;;;;;;;2.00;2.00;;;;;21.14;44.24;101142.31;5013750;28;45614;-53
2022/09/16 09:30:26;;;;;;;;;5.00;3.00;;;;;21.50;43.52;101139.25;5073222;27;45484;-54
2022/09/16 09:32:51;;;;;;;;;3.75;3.75;;;;;22.23;42.20;101144.53;5002418;28;45367;-51
2022/09/16 09:35:34;;;;;;;;;5.25;4.75;;;;;22.62;41.60;101142.69;5035555;28;45413;-53
2022/09/16 09:38:12;;;;;;;;;5.00;3.00;;;;;22.77;41.85;101142.41;5072610;27;45445;-54
2022/09/16 09:40:57;;;;;;;;;4.00;4.00;;;;;23.46;39.08;101143.41;5073013;28;45391;-51
2022/09/16 09:43:41;;;;;;;;;5.75;2.25;;;;;24.08;37.34;101150.56;5056447;27;45398;-54
2022/09/16 09:46:14;;;;;;;;;6.00;4.00;;;;;24.34;36.59;101149.41;5072668;27;45404;-57
2022/09/16 09:48:45;;;;;;;;;5.60;3.60;;;;;24.86;36.12;101143.53;4973503;28;45407;-55
2022/09/16 09:51:20;;;;;;;;;3.80;3.80;;;;;25.56;35.94;101146.41;4973080;28;45494;-50
2022/09/16 09:53:52;;;;;;;;;3.40;2.60;;;;;26.37;34.24;101144.69;4973061;28;46420;-53
2022/09/16 09:56:30;;;;;;;;;2.80;2.00;;;;;26.56;33.06;101145.38;4973110;28;46289;-48
2022/09/16 09:59:18;;;;;;;;;1.80;1.80;;;;;28.04;30.85;101139.66;4976125;28;45882;-50
2022/09/16 10:01:43;;;;;;;;;1.80;1.80;;;;;30.07;28.07;101131.69;4976155;28;45462;-52
2022/09/16 10:04:14;;;;;;;;;4.00;3.00;;;;;32.76;25.70;101139.28;5023624;28;46018;-55
2022/09/16 10:06:41;;;;;;;;;1.00;1.00;;;;;35.13;23.65;101132.47;5076155;27;45507;-56
2022/09/16 10:09:13;;;;;;;;;0.80;0.80;;;;;36.70;23.31;101136.06;5070596;27;45512;-53
2022/09/16 10:11:56;;;;;;;;;1.00;1.00;;;;;37.81;20.40;101124.34;4975939;28;45513;-55
2022/09/16 10:14:39;;;;;;;;;4.60;1.80;;;;;36.46;20.58;101128.00;5032627;28;45608;-54
2022/09/16 10:17:15;;;;;;;;;2.20;1.60;;;;;35.93;22.70;101136.81;5076197;27;45357;-57
2022/09/16 10:20:22;;;;;;;;;1.40;0.80;;;;;33.66;22.35;101135.25;5076108;27;45445;-54
2022/09/16 10:23:04;;;;;;;;;3.40;1.60;;;;;32.17;23.84;101129.09;5013387;28;45583;-49
2022/09/16 10:25:32;;;;;;;;;1.00;1.00;;;;;31.30;23.46;101138.34;5013181;28;47031;-51
2022/09/16 10:28:00;;;;;;;;;1.20;1.20;;;;;30.38;24.58;101133.75;5013141;28;45469;-58
2022/09/16 10:30:28;;;;;;;;;4.00;2.00;;;;;29.56;24.39;101144.28;5013120;28;45544;-56
2022/09/16 10:33:16;;;;;;;;;3.00;3.00;;;;;28.71;24.66;101135.00;5012829;28;45462;-57
2022/09/16 10:35:59;;;;;;;;;2.40;0.60;;;;;27.90;25.73;101132.91;5013048;28;45944;-55
2022/09/16 10:38:35;;;;;;;;;1.60;1.60;;;;;27.58;26.54;101133.50;5012915;28;45478;-57
2022/09/16 10:41:15;;;;;;;;;3.20;1.00;;;;;27.56;28.02;101130.22;5000264;28;45525;-57
2022/09/16 10:43:49;;;;;;;;;1.00;1.00;;;;;28.77;25.36;101139.44;5016684;28;45380;-57
2022/09/16 10:46:17;;;;;;;;;2.00;2.00;;;;;29.18;25.46;101137.94;5017231;28;46001;-53
2022/09/16 10:48:43;;;;;;;;;1.00;1.00;;;;;29.16;24.28;101142.00;5017194;28;45379;-51
2022/09/16 10:51:22;;;;;;;;;0.60;0.20;;;;;28.34;26.45;101141.13;5017334;28;45418;-58
2022/09/16 10:53:53;;;;;;;;;2.20;1.80;;;;;27.45;26.21;101139.31;5015138;28;45546;-54
2022/09/16 10:56:22;;;;;;;;;1.80;1.00;;;;;26.90;27.10;101148.19;4945647;28;46345;-56
2022/09/16 10:58:48;;;;;;;;;1.00;1.00;;;;;26.38;27.71;101137.34;4959362;28;45404;-52
2022/09/16 11:01:47;;;;;;;;;0.50;0.50;;;;;26.06;28.63;101148.69;5040173;28;45778;-50
2022/09/16 11:04:24;;;;;;;;;3.40;2.00;;;;;26.02;28.76;101149.41;5079368;27;45356;-56
2022/09/16 11:07:08;;;;;;;;;1.00;1.00;;;;;27.09;28.39;101149.66;5078980;27;46223;-51
2022/09/16 11:09:39;;;;;;;;;2.60;2.40;;;;;27.00;27.09;101142.06;5077606;27;45425;-56
2022/09/16 11:12:29;;;;;;;;;2.80;2.80;;;;;26.66;27.83;101144.72;5079370;27;45299;-55
2022/09/16 11:15:23;;;;;;;;;3.00;1.40;;;;;26.31;28.19;101147.56;5079358;27;45416;-50
2022/09/16 11:18:01;;;;;;;;;2.40;1.40;;;;;25.91;29.37;101151.06;5076896;28;45705;-54
2022/09/16 11:21:04;;;;;;;;;3.40;1.40;;;;;25.46;29.44;101157.09;5079161;27;45346;-48
2022/09/16 11:23:48;;;;;;;;;4.40;2.20;;;;;25.11;29.56;101152.41;5079334;27;45344;-51
2022/09/16 11:26:40;;;;;;;;;2.60;2.60;;;;;24.82;30.63;101148.63;5079513;27;45428;-55
2022/09/16 11:29:20;;;;;;;;;4.80;1.80;;;;;25.05;30.45;101145.13;5078698;27;46602;-54
2022/09/16 11:32:14;;;;;;;;;2.00;2.00;;;;;25.09;30.55;101146.34;5063743;27;45295;-49
2022/09/16 11:34:58;;;;;;;;;3.40;2.00;;;;;25.09;30.71;101154.53;4993835;28;62088;-48
2022/09/16 11:37:33;;;;;;;;;2.40;2.40;;;;;24.86;30.87;101148.97;4995769;28;45489;-55
2022/09/16 11:40:25;;;;;;;;;3.40;1.80;;;;;24.55;31.14;101139.97;4996392;28;45410;-54
2022/09/16 11:43:12;;;;;;;;;2.80;2.00;;;;;24.34;31.55;101129.56;4995496;28;45463;-51
2022/09/16 11:45:46;;;;;;;;;1.60;1.20;;;;;24.65;30.72;101153.06;4995581;28;45373;-53